Sealevel, NC (28577)

11:53 PM EDT on April 20, 2015 (GMT -0400)
Davis Shore | | Change Station
CLOSE
Current Station
Personal Weather Station
Location: Davis, NC
Elevation: 16 ft
Nearby Weather Stations

Elev 16 ft 34.80 °N, 76.46 °W | Updated 14 minutes ago

Mostly Cloudy
Mostly Cloudy
69.9 °F
Feels Like 69.9 °F
N
11.0
Wind Variable Wind from SW
Gusts 19.0 mph

Today
High -- | Low -- °F
--% Chance of Precip.
Yesterday
High -- | Low -- °F
Precip. -- in
6:27 AM 7:41 PM
Waxing Crescent, 8% visible
Pressure 29.78 in
Visibility 10.0 miles
Clouds Few 1400 ft
Few 12000 ft
Dew Point 67 °F
Humidity 91%
Rainfall 0.00 in
Snow Depth Not available.
UV 0 out of 12
Pollen 10.70 out of 12
Air Quality Not available.
Flu Activity Sporadic
METAR KMRH 210258Z AUTO 24011KT 10SM FEW014 FEW120 20/19 A2978 RMK AO2 SLP085 T02000189 51006 TSNO

More Conditions Fewer Conditions

Pressure 29.78 in
Visibility 10.0 miles
Clouds Few 1400 ft
Few 12000 ft
Dew Point 67 °F
Humidity 91%
Rainfall 0.00 in
Snow Depth Not available.
UV 0 out of 12
Pollen 10.70 out of 12
Air Quality Not available.
Flu Activity Sporadic
METAR KMRH 210258Z AUTO 24011KT 10SM FEW014 FEW120 20/19 A2978 RMK AO2 SLP085 T02000189 51006 TSNO

More Conditions Fewer Conditions

10-Day Weather Forecast

Almanac

Astronomy

Apr. 20, 2015 Rise Set
Actual Time
Civil Twilight
Nautical Twilight
Astronomical Twilight
Moon
Length of Visible Light
Length of Day
Tomorrow will be .
, % of the Moon is Illuminated

Today's Extremes

State Highs State Lows

Community

WunderPhotos

Upload Photos

1,815,296 photos uploaded!

WunderBlogs® & News

Nearby

Air Quality

  Air Quality AQ Index Pollutant
Not available.

Snow Depth

Station Depth Elevation

Earthquake Activity

City Distance Mag. Time & Date
Minimum magnitude displayed is 2.5.

Coastal Water Temperatures

Place Temperature

Stations

Nearby Weather Stations

Station Location Temp. Windchill Dew Point Humidity Wind Precip. Elev Updated Type